Aérodrome :
LOGIN :

S'inscrire | Disclaimer

   EN    FR    IT 

 










Légende :    VFR   VFR Marginal   IFR   IFR Intensif   IFR Très Intensif
Visi : 
Plafond : 
>= 8 km
>= 3000ft
5 à 8 km
1000 à 3000 ft
1500m à 5 km
500 à 1000 ft
800 à 1500m
200 à 500 ft
< 800m
< 200 ft
Symboles :   Orages  Brouillard  Fortes neiges  Fortes précipitations  Vent > 20 kt
SIGMETs :   Divers  Orages  Givrage  Turbulence  Onde Orograph.  Cendres Volcan.






- Altitude de l'aérodrome : 302 ft


LFPM - Melun Villaroche

DERNIER METAR :
  • 291130Z AUTO 18011KT 6000 OVC005 09/08 Q1010

METARs EXPIRÉS :
  • 291100Z AUTO 17010KT 5000 -RADZ BR OVC004 08/08 Q1011
  • 291030Z AUTO 18009KT 4300 DZ BR OVC004 08/08 Q1011
  • 291000Z AUTO 17009KT 4100 BR OVC004 08/08 Q1011
  • 290930Z AUTO 17010KT 4100 -DZ BR OVC004 08/08 Q1012
  • 290900Z AUTO 18009KT 9000 OVC004 07/07 Q1012
  • 290830Z AUTO 17009KT 4200 DZ BR OVC004 07/07 Q1013
  • 290800Z AUTO 17010KT 3900 DZ BR OVC006 07/06 Q1013
  • 290730Z AUTO 17010KT 3800 -RADZ BR BKN007 BKN013 OVC020 07/06 Q1013
  • 290700Z AUTO 17009KT 9999 OVC009 07/06 Q1013

Prévision TAF périmée.
ATIS : +33 1 64 14 28 44



MET'MAP, la Météo Aéronautique d'un coup d'oeil ! - Copyright ORBIFLY Décembre 2007 - Disclaimer

ORBIFLY MET'MAP TEAM :

Programmation & Développement : Alexandra Zaïnal
Sur une idée originale de : Baudouin d'Aumeries
Soutien technique & logistique : Manuel Goepfert
Assistance : Marc-Olivier Méhu




SOURCES & CREDITS :

   NOAA